Time,TemperatureF,DewpointF,PressureIn,WindDirection,WindDirectionDegrees,WindSpeedMPH,WindSpeedGustMPH,Humidity,HourlyPrecipIn,Conditions,Clouds,dailyrainin,SoftwareType,DateUTC
2013-08-17 00:08:00,56.0,52.0,30.20,South,186,0.0,-999.0,87,-99.99,,,0.00,weatherlink.com 1.10,2013-08-17 04:08:00,
2013-08-17 00:23:00,55.7,52.0,30.20,South,186,0.0,-999.0,88,-99.99,,,0.00,weatherlink.com 1.10,2013-08-17 04:23:00,
2013-08-17 00:39:00,55.7,52.0,30.20,South,186,0.0,-999.0,88,-99.99,,,0.00,weatherlink.com 1.10,2013-08-17 04:39:00,
2013-08-17 00:54:00,55.5,52.0,30.20,South,186,0.0,-999.0,89,-99.99,,,0.00,weatherlink.com 1.10,2013-08-17 04:54:00,
2013-08-17 01:09:00,55.5,52.0,30.21,South,186,0.0,-999.0,89,-99.99,,,0.00,weatherlink.com 1.10,2013-08-17 05:09:00,
2013-08-17 01:24:00,55.5,53.0,30.21,South,186,0.0,-999.0,90,-99.99,,,0.00,weatherlink.com 1.10,2013-08-17 05:24:00,
2013-08-17 01:39:00,55.5,53.0,30.21,South,186,0.0,-999.0,90,-99.99,,,0.00,weatherlink.com 1.10,2013-08-17 05:39:00,
2013-08-17 01:54:00,55.4,53.0,30.22,South,186,0.0,-999.0,90,-99.99,,,0.00,weatherlink.com 1.10,2013-08-17 05:54:00,
2013-08-17 02:09:00,55.2,52.0,30.22,South,186,0.0,-999.0,90,-99.99,,,0.00,weatherlink.com 1.10,2013-08-17 06:09:00,
2013-08-17 02:24:00,54.9,52.0,30.22,South,186,0.0,-999.0,90,-99.99,,,0.00,weatherlink.com 1.10,2013-08-17 06:24:00,
2013-08-17 02:39:00,54.5,52.0,30.23,South,186,0.0,-999.0,90,-99.99,,,0.00,weatherlink.com 1.10,2013-08-17 06:39:00,
2013-08-17 02:54:00,54.2,51.0,30.23,South,186,0.0,-999.0,90,-99.99,,,0.00,weatherlink.com 1.10,2013-08-17 06:54:00,
2013-08-17 03:09:00,53.9,51.0,30.23,South,186,0.0,-999.0,91,-99.99,,,0.00,weatherlink.com 1.10,2013-08-17 07:09:00,
2013-08-17 03:24:00,53.6,51.0,30.23,South,186,0.0,-999.0,91,-99.99,,,0.00,weatherlink.com 1.10,2013-08-17 07:24:00,
2013-08-17 03:39:00,53.5,51.0,30.23,South,186,0.0,-999.0,91,-99.99,,,0.00,weatherlink.com 1.10,2013-08-17 07:39:00,
2013-08-17 03:54:00,53.2,51.0,30.23,South,186,0.0,-999.0,91,-99.99,,,0.00,weatherlink.com 1.10,2013-08-17 07:54:00,
2013-08-17 04:09:00,53.1,51.0,30.23,South,186,0.0,-999.0,92,-99.99,,,0.00,weatherlink.com 1.10,2013-08-17 08:09:00,
2013-08-17 04:24:00,53.0,51.0,30.23,South,186,0.0,-999.0,92,-99.99,,,0.00,weatherlink.com 1.10,2013-08-17 08:24:00,
2013-08-17 04:39:00,52.8,51.0,30.23,South,186,0.0,-999.0,92,-99.99,,,0.00,weatherlink.com 1.10,2013-08-17 08:39:00,
2013-08-17 04:54:00,52.6,50.0,30.23,South,186,0.0,-999.0,92,-99.99,,,0.00,weatherlink.com 1.10,2013-08-17 08:54:00,
2013-08-17 05:09:00,52.4,50.0,30.24,South,186,0.0,-999.0,92,-99.99,,,0.00,weatherlink.com 1.10,2013-08-17 09:09:00,
2013-08-17 05:24:00,52.1,50.0,30.25,South,186,0.0,-999.0,92,-99.99,,,0.00,weatherlink.com 1.10,2013-08-17 09:24:00,
2013-08-17 05:39:00,51.9,50.0,30.25,South,186,0.0,-999.0,92,-99.99,,,0.00,weatherlink.com 1.10,2013-08-17 09:39:00,
2013-08-17 05:54:00,51.7,50.0,30.25,South,186,0.0,-999.0,93,-99.99,,,0.00,weatherlink.com 1.10,2013-08-17 09:54:00,
2013-08-17 06:09:00,51.5,49.0,30.26,South,186,0.0,-999.0,92,-99.99,,,0.00,weatherlink.com 1.10,2013-08-17 10:09:00,
2013-08-17 06:24:00,51.4,50.0,30.27,South,186,0.0,-999.0,93,-99.99,,,0.00,weatherlink.com 1.10,2013-08-17 10:24:00,
2013-08-17 06:39:00,51.3,49.0,30.27,South,186,0.0,-999.0,93,-99.99,,,0.00,weatherlink.com 1.10,2013-08-17 10:39:00,
2013-08-17 06:54:00,51.3,49.0,30.27,South,186,0.0,-999.0,93,-99.99,,,0.00,weatherlink.com 1.10,2013-08-17 10:54:00,
2013-08-17 07:09:00,51.6,50.0,30.27,South,186,0.0,-999.0,93,-99.99,,,0.00,weatherlink.com 1.10,2013-08-17 11:09:00,
2013-08-17 07:24:00,52.1,50.0,30.27,South,186,0.0,-999.0,93,-99.99,,,0.00,weatherlink.com 1.10,2013-08-17 11:24:00,
2013-08-17 07:39:00,53.1,52.0,30.27,South,186,0.0,-999.0,94,-99.99,,,0.00,weatherlink.com 1.10,2013-08-17 11:39:00,
2013-08-17 07:54:00,54.3,53.0,30.28,South,186,0.0,-999.0,94,-99.99,,,0.00,weatherlink.com 1.10,2013-08-17 11:54:00,
2013-08-17 08:09:00,55.1,54.0,30.27,South,186,0.0,-999.0,94,-99.99,,,0.00,weatherlink.com 1.10,2013-08-17 12:09:00,
2013-08-17 08:24:00,56.3,55.0,30.28,South,186,0.0,-999.0,94,-99.99,,,0.00,weatherlink.com 1.10,2013-08-17 12:24:00,
2013-08-17 08:39:00,57.2,56.0,30.28,South,170,0.0,-999.0,94,-99.99,,,0.00,weatherlink.com 1.10,2013-08-17 12:39:00,
2013-08-17 08:54:00,58.1,56.0,30.28,NE,50,0.0,-999.0,94,-99.99,,,0.00,weatherlink.com 1.10,2013-08-17 12:54:00,
2013-08-17 09:09:00,59.2,57.0,30.28,NE,50,0.0,-999.0,92,-99.99,,,0.00,weatherlink.com 1.10,2013-08-17 13:09:00,
2013-08-17 09:24:00,60.5,58.0,30.28,NE,50,0.0,-999.0,90,-99.99,,,0.00,weatherlink.com 1.10,2013-08-17 13:24:00,
2013-08-17 09:40:00,62.0,58.0,30.28,NE,50,0.0,-999.0,87,-99.99,,,0.00,weatherlink.com 1.10,2013-08-17 13:40:00,
2013-08-17 09:55:00,63.6,59.0,30.28,South,180,0.0,-999.0,84,-99.99,,,0.00,weatherlink.com 1.10,2013-08-17 13:55:00,
2013-08-17 10:10:00,65.6,58.0,30.28,NE,56,0.0,-999.0,77,-99.99,,,0.00,weatherlink.com 1.10,2013-08-17 14:10:00,
2013-08-17 10:25:00,67.6,59.0,30.28,NE,55,1.0,-999.0,75,-99.99,,,0.00,weatherlink.com 1.10,2013-08-17 14:25:00,
2013-08-17 10:40:00,69.1,61.0,30.28,NE,53,3.0,-999.0,74,-99.99,,,0.00,weatherlink.com 1.10,2013-08-17 14:40:00,
2013-08-17 10:55:00,70.6,62.0,30.28,ENE,57,0.0,-999.0,73,-99.99,,,0.00,weatherlink.com 1.10,2013-08-17 14:55:00,
2013-08-17 11:10:00,72.3,62.0,30.27,SE,142,0.0,-999.0,69,-99.99,,,0.00,weatherlink.com 1.10,2013-08-17 15:10:00,
2013-08-17 11:25:00,74.1,61.0,30.27,East,93,0.0,-999.0,63,-99.99,,,0.00,weatherlink.com 1.10,2013-08-17 15:25:00,
2013-08-17 11:40:00,76.1,60.0,30.27,ENE,61,0.0,-999.0,57,-99.99,,,0.00,weatherlink.com 1.10,2013-08-17 15:40:00,
2013-08-17 11:55:00,78.2,61.0,30.27,NE,53,0.0,-999.0,55,-99.99,,,0.00,weatherlink.com 1.10,2013-08-17 15:55:00,
2013-08-17 12:10:00,79.8,63.0,30.25,East,79,3.0,-999.0,57,-99.99,,,0.00,weatherlink.com 1.10,2013-08-17 16:10:00,
2013-08-17 12:25:00,80.8,61.0,30.25,South,171,1.0,-999.0,51,-99.99,,,0.00,weatherlink.com 1.10,2013-08-17 16:25:00,
2013-08-17 12:40:00,81.3,59.0,30.26,North,355,0.0,-999.0,47,-99.99,,,0.00,weatherlink.com 1.10,2013-08-17 16:40:00,
2013-08-17 12:55:00,81.3,59.0,30.25,WNW,290,0.0,-999.0,46,-99.99,,,0.00,weatherlink.com 1.10,2013-08-17 16:55:00,
2013-08-17 13:10:00,82.6,57.0,30.24,ENE,72,1.0,-999.0,42,-99.99,,,0.00,weatherlink.com 1.10,2013-08-17 17:10:00,
2013-08-17 13:25:00,83.1,60.0,30.24,South,180,2.0,-999.0,46,-99.99,,,0.00,weatherlink.com 1.10,2013-08-17 17:25:00,
2013-08-17 13:40:00,83.5,58.0,30.23,NNE,18,1.0,-999.0,42,-99.99,,,0.00,weatherlink.com 1.10,2013-08-17 17:40:00,
2013-08-17 13:55:00,82.7,55.0,30.24,SW,231,4.0,-999.0,39,-99.99,,,0.00,weatherlink.com 1.10,2013-08-17 17:55:00,
2013-08-17 14:11:00,82.2,59.0,30.23,SSW,209,0.0,-999.0,46,-99.99,,,0.00,weatherlink.com 1.10,2013-08-17 18:11:00,
2013-08-17 14:26:00,83.1,56.0,30.23,South,173,0.0,-999.0,40,-99.99,,,0.00,weatherlink.com 1.10,2013-08-17 18:26:00,
2013-08-17 14:41:00,83.4,56.0,30.23,East,82,0.0,-999.0,39,-99.99,,,0.00,weatherlink.com 1.10,2013-08-17 18:41:00,
2013-08-17 14:56:00,84.5,58.0,30.22,WNW,298,0.0,-999.0,40,-99.99,,,0.00,weatherlink.com 1.10,2013-08-17 18:56:00,
2013-08-17 15:11:00,85.5,57.0,30.22,SSW,196,0.0,-999.0,38,-99.99,,,0.00,weatherlink.com 1.10,2013-08-17 19:11:00,
2013-08-17 15:25:00,86.2,59.0,30.21,SSW,209,1.0,1.0,40,0.00,,,0.00,Wunderground v.1.15,2013-08-17 19:25:00,
2013-08-17 15:26:00,86.3,61.0,30.21,ENE,67,1.0,-999.0,42,-99.99,,,0.00,weatherlink.com 1.10,2013-08-17 19:26:00,
2013-08-17 15:30:00,85.9,58.8,30.22,NE,56,1.0,1.0,40,0.00,,,0.00,Wunderground v.1.15,2013-08-17 19:30:00,
2013-08-17 15:35:00,85.7,56.4,30.22,ESE,103,0.0,0.0,37,0.00,,,0.00,Wunderground v.1.15,2013-08-17 19:35:00,
2013-08-17 15:40:00,85.5,57.0,30.22,NE,51,0.0,0.0,38,0.00,,,0.00,Wunderground v.1.15,2013-08-17 19:40:00,
2013-08-17 15:50:00,85.2,58.2,30.21,NE,55,0.0,0.0,40,0.00,,,0.00,Wunderground v.1.15,2013-08-17 19:50:00,
2013-08-17 15:55:00,85.2,59.5,30.21,SSE,168,0.0,0.0,42,0.00,,,0.00,Wunderground v.1.15,2013-08-17 19:55:00,
2013-08-17 15:57:00,85.2,60.0,30.21,SSE,159,0.0,-999.0,42,-99.99,,,0.00,weatherlink.com 1.10,2013-08-17 19:57:00,
2013-08-17 16:05:00,85.2,60.2,30.21,ESE,112,0.0,0.0,43,0.00,,,0.00,Wunderground v.1.15,2013-08-17 20:05:00,
2013-08-17 16:10:00,85.1,58.1,30.21,ENE,74,0.0,0.0,40,0.00,,,0.00,Wunderground v.1.15,2013-08-17 20:10:00,
2013-08-17 16:11:00,85.1,59.0,30.21,NE,44,0.0,-999.0,42,-99.99,,,0.00,weatherlink.com 1.10,2013-08-17 20:11:00,
2013-08-17 16:15:00,85.0,59.3,30.21,South,184,0.0,0.0,42,0.00,,,0.00,Wunderground v.1.15,2013-08-17 20:15:00,
2013-08-17 16:20:00,84.7,58.4,30.21,South,180,0.0,2.0,41,0.00,,,0.00,Wunderground v.1.15,2013-08-17 20:20:00,
2013-08-17 16:27:00,84.7,58.0,30.21,SSE,161,1.0,-999.0,41,-99.99,,,0.00,weatherlink.com 1.10,2013-08-17 20:27:00,
2013-08-17 16:35:00,84.9,57.2,30.21,SSE,159,0.0,2.0,39,0.00,,,0.00,Wunderground v.1.15,2013-08-17 20:35:00,
2013-08-17 16:40:00,84.7,57.0,30.21,SW,235,1.0,2.0,39,0.00,,,0.00,Wunderground v.1.15,2013-08-17 20:40:00,
2013-08-17 16:41:00,84.6,58.0,30.21,SW,235,1.0,-999.0,41,-99.99,,,0.00,weatherlink.com 1.10,2013-08-17 20:41:00,
2013-08-17 16:50:00,84.3,57.3,30.20,SSW,211,1.0,1.0,40,0.00,,,0.00,Wunderground v.1.15,2013-08-17 20:50:00,
2013-08-17 16:57:00,84.0,58.0,30.21,SSW,211,1.0,-999.0,42,-99.99,,,0.00,weatherlink.com 1.10,2013-08-17 20:57:00,
2013-08-17 17:05:00,83.6,58.1,30.21,SSW,207,0.0,2.0,42,0.00,,,0.00,Wunderground v.1.15,2013-08-17 21:05:00,
2013-08-17 17:12:00,83.4,59.0,30.21,SSW,205,0.0,-999.0,44,-99.99,,,0.00,weatherlink.com 1.10,2013-08-17 21:12:00,
2013-08-17 17:20:00,83.1,59.6,30.21,SSW,202,0.0,2.0,45,0.00,,,0.00,Wunderground v.1.15,2013-08-17 21:20:00,
2013-08-17 17:28:00,82.6,59.0,30.21,SSW,202,0.0,-999.0,45,-99.99,,,0.00,weatherlink.com 1.10,2013-08-17 21:28:00,
2013-08-17 17:35:00,82.5,58.4,30.21,SSW,202,0.0,2.0,44,0.00,,,0.00,Wunderground v.1.15,2013-08-17 21:35:00,
2013-08-17 17:40:00,82.3,60.6,30.20,SSW,202,0.0,2.0,48,0.00,,,0.00,Wunderground v.1.15,2013-08-17 21:40:00,
2013-08-17 17:43:00,82.3,59.0,30.20,SSW,202,0.0,-999.0,45,-99.99,,,0.00,weatherlink.com 1.10,2013-08-17 21:43:00,
2013-08-17 17:50:00,82.1,61.0,30.20,SSW,202,0.0,2.0,49,0.00,,,0.00,Wunderground v.1.15,2013-08-17 21:50:00,
2013-08-17 17:55:00,82.0,61.0,30.21,SSW,202,0.0,2.0,49,0.00,,,0.00,Wunderground v.1.15,2013-08-17 21:55:00,
2013-08-17 17:58:00,81.9,61.0,30.20,SSW,202,0.0,-999.0,49,-99.99,,,0.00,weatherlink.com 1.10,2013-08-17 21:58:00,
2013-08-17 18:05:00,81.6,61.7,30.21,SSW,202,0.0,2.0,51,0.00,,,0.00,Wunderground v.1.15,2013-08-17 22:05:00,
2013-08-17 18:10:00,81.4,62.6,30.20,SSW,202,0.0,2.0,53,0.00,,,0.00,Wunderground v.1.15,2013-08-17 22:10:00,
2013-08-17 18:13:00,81.2,62.0,30.20,SSW,202,0.0,-999.0,52,-99.99,,,0.00,weatherlink.com 1.10,2013-08-17 22:13:00,
2013-08-17 18:20:00,81.0,62.8,30.20,SSW,202,0.0,2.0,54,0.00,,,0.00,Wunderground v.1.15,2013-08-17 22:20:00,
2013-08-17 18:25:00,80.9,62.7,30.20,SSW,202,0.0,2.0,54,0.00,,,0.00,Wunderground v.1.15,2013-08-17 22:25:00,
2013-08-17 18:28:00,80.8,63.0,30.20,SSW,202,0.0,-999.0,55,-99.99,,,0.00,weatherlink.com 1.10,2013-08-17 22:28:00,
2013-08-17 18:35:00,80.3,64.2,30.21,SSW,202,0.0,2.0,58,0.00,,,0.00,Wunderground v.1.15,2013-08-17 22:35:00,
2013-08-17 18:43:00,79.8,64.0,30.21,SSW,202,0.0,-999.0,59,-99.99,,,0.00,weatherlink.com 1.10,2013-08-17 22:43:00,
2013-08-17 18:58:00,78.4,64.0,30.21,SSW,202,0.0,-999.0,61,-99.99,,,0.00,weatherlink.com 1.10,2013-08-17 22:58:00,
2013-08-17 19:13:00,77.2,64.0,30.21,SSW,202,0.0,-999.0,63,-99.99,,,0.00,weatherlink.com 1.10,2013-08-17 23:13:00,
2013-08-17 19:28:00,76.2,63.0,30.21,SSW,202,0.0,-999.0,63,-99.99,,,0.00,weatherlink.com 1.10,2013-08-17 23:28:00,
2013-08-17 19:43:00,74.7,61.0,30.21,SSW,202,0.0,-999.0,62,-99.99,,,0.00,weatherlink.com 1.10,2013-08-17 23:43:00,
2013-08-17 19:58:00,73.5,61.0,30.22,SSW,202,0.0,-999.0,64,-99.99,,,0.00,weatherlink.com 1.10,2013-08-17 23:58:00,
2013-08-17 20:13:00,72.1,61.0,30.22,SSW,202,0.0,-999.0,69,-99.99,,,0.00,weatherlink.com 1.10,2013-08-18 00:13:00,
2013-08-17 20:28:00,71.0,61.0,30.22,SSW,202,0.0,-999.0,71,-99.99,,,0.00,weatherlink.com 1.10,2013-08-18 00:28:00,
2013-08-17 20:43:00,69.9,61.0,30.22,SSW,202,0.0,-999.0,74,-99.99,,,0.00,weatherlink.com 1.10,2013-08-18 00:43:00,
2013-08-17 20:55:00,68.9,60.6,30.22,SSW,202,0.0,2.0,75,0.00,,,0.00,Wunderground v.1.15,2013-08-18 00:55:00,
2013-08-17 20:58:00,68.7,61.0,30.22,SSW,202,0.0,-999.0,76,-99.99,,,0.00,weatherlink.com 1.10,2013-08-18 00:58:00,
2013-08-17 21:13:00,67.6,61.0,30.23,SSW,202,0.0,-999.0,78,-99.99,,,0.00,weatherlink.com 1.10,2013-08-18 01:13:00,
2013-08-17 21:28:00,67.0,60.0,30.23,SSW,202,0.0,-999.0,79,-99.99,,,0.00,weatherlink.com 1.10,2013-08-18 01:28:00,
2013-08-17 21:43:00,66.3,60.0,30.24,SSW,202,0.0,-999.0,81,-99.99,,,0.00,weatherlink.com 1.10,2013-08-18 01:43:00,
2013-08-17 21:58:00,65.6,60.0,30.23,SSW,202,0.0,-999.0,81,-99.99,,,0.00,weatherlink.com 1.10,2013-08-18 01:58:00,
2013-08-17 22:13:00,64.9,59.0,30.23,SSW,202,0.0,-999.0,82,-99.99,,,0.00,weatherlink.com 1.10,2013-08-18 02:13:00,
2013-08-17 22:28:00,64.3,59.0,30.23,SSW,202,0.0,-999.0,83,-99.99,,,0.00,weatherlink.com 1.10,2013-08-18 02:28:00,
2013-08-17 22:43:00,63.8,59.0,30.23,SSW,202,0.0,-999.0,84,-99.99,,,0.00,weatherlink.com 1.10,2013-08-18 02:43:00,
2013-08-17 22:58:00,63.5,59.0,30.24,SSW,202,0.0,-999.0,84,-99.99,,,0.00,weatherlink.com 1.10,2013-08-18 02:58:00,
2013-08-17 23:13:00,63.1,59.0,30.24,SSW,202,0.0,-999.0,85,-99.99,,,0.00,weatherlink.com 1.10,2013-08-18 03:13:00,
2013-08-17 23:28:00,62.7,59.0,30.23,SSW,202,0.0,-999.0,86,-99.99,,,0.00,weatherlink.com 1.10,2013-08-18 03:28:00,
2013-08-17 23:43:00,62.4,58.0,30.24,SSW,202,0.0,-999.0,86,-99.99,,,0.00,weatherlink.com 1.10,2013-08-18 03:43:00,
2013-08-17 23:58:00,62.1,58.0,30.23,SSW,202,0.0,-999.0,87,-99.99,,,0.00,weatherlink.com 1.10,2013-08-18 03:58:00,